createdAt,value
2023-01-06T00:03:49.431Z,1.6
2023-01-06T00:08:51.731Z,1.4
2023-01-06T00:13:54.019Z,1.4
2023-01-06T00:18:56.291Z,1.5
2023-01-06T00:23:58.500Z,1.5
2023-01-06T00:29:00.974Z,1.3
2023-01-06T00:34:03.088Z,1.6
2023-01-06T00:39:05.259Z,1.5
2023-01-06T00:44:07.664Z,1.6
2023-01-06T00:49:10.153Z,1.5
2023-01-06T00:54:12.507Z,1.5
2023-01-06T00:59:14.690Z,1.5
2023-01-06T01:04:16.756Z,1.5
2023-01-06T01:09:18.961Z,1.4
2023-01-06T01:14:41.326Z,1.6
2023-01-06T01:19:43.389Z,1.5
2023-01-06T01:24:45.850Z,1.5
2023-01-06T01:29:49.104Z,1.7
2023-01-06T01:34:51.764Z,1.5
2023-01-06T01:39:54.266Z,1.8
2023-01-06T01:44:56.547Z,1.6
2023-01-06T01:49:59.023Z,1.7
2023-01-06T01:55:03.615Z,1.8
2023-01-06T02:00:05.832Z,1.9
2023-01-06T02:05:08.249Z,1.7
2023-01-06T02:10:11.036Z,1.8
2023-01-06T02:15:11.897Z,1.6
2023-01-06T02:20:14.229Z,1.6
2023-01-06T02:25:16.527Z,1.6
2023-01-06T02:30:19.608Z,1.4
2023-01-06T02:35:21.753Z,1.7
2023-01-06T02:40:24.190Z,1.6
2023-01-06T02:45:26.441Z,1.6
2023-01-06T02:50:28.652Z,1.4
2023-01-06T02:55:30.850Z,1.7
2023-01-06T03:00:33.292Z,1.6
2023-01-06T03:05:35.697Z,1.6
2023-01-06T03:10:37.845Z,1.5
2023-01-06T03:15:40.060Z,1.6
2023-01-06T03:20:42.320Z,1.7
2023-01-06T03:25:44.557Z,1.5
2023-01-06T03:30:47.416Z,1.7
2023-01-06T03:35:49.667Z,1.6
2023-01-06T03:40:51.778Z,1.6
2023-01-06T03:45:53.932Z,1.7
2023-01-06T03:50:56.110Z,1.7
2023-01-06T03:55:58.641Z,1.6
2023-01-06T04:01:01.181Z,1.6
2023-01-06T04:06:04.090Z,1.5
2023-01-06T04:11:06.403Z,1.5
2023-01-06T04:16:08.608Z,1.8
2023-01-06T04:21:10.883Z,1.5
2023-01-06T04:26:14.026Z,1.6
2023-01-06T04:31:16.110Z,1.8
2023-01-06T04:36:18.322Z,1.5
2023-01-06T04:41:20.545Z,1.5
2023-01-06T04:46:22.649Z,1.6
2023-01-06T04:51:24.877Z,1.6
2023-01-06T04:56:27.817Z,1.6
2023-01-06T05:01:30.500Z,1.6
2023-01-06T05:06:33.653Z,1.6
2023-01-06T05:11:35.869Z,1.7
2023-01-06T05:16:38.079Z,1.7
2023-01-06T05:21:40.581Z,1.6
2023-01-06T05:26:42.749Z,1.7
2023-01-06T05:31:45.091Z,1.6
2023-01-06T05:36:48.982Z,1.7
2023-01-06T05:41:51.380Z,1.7
2023-01-06T05:46:54.820Z,2.2
2023-01-06T05:51:57.966Z,1.9
2023-01-06T05:57:00.382Z,2
2023-01-06T06:02:02.681Z,2
2023-01-06T06:07:05.616Z,2.1
2023-01-06T06:12:08.152Z,2
2023-01-06T06:17:10.456Z,2.1
2023-01-06T06:27:17.417Z,2.1
2023-01-06T06:32:19.836Z,1.9
2023-01-06T06:37:22.039Z,3.7
2023-01-06T06:42:24.219Z,3.6
2023-01-06T06:47:26.357Z,3.1
2023-01-06T06:52:28.529Z,2.7
2023-01-06T06:57:30.831Z,2.6
2023-01-06T07:02:33.098Z,1.9
2023-01-06T07:07:35.459Z,1.8
2023-01-06T07:12:37.681Z,1.9
2023-01-06T07:17:39.736Z,1.5
2023-01-06T07:22:41.785Z,1.8
2023-01-06T07:27:43.830Z,1.2
2023-01-06T07:32:45.854Z,1.5
2023-01-06T07:37:47.998Z,1.1
2023-01-06T07:42:50.132Z,1.5
2023-01-06T07:47:52.188Z,1.2
2023-01-06T07:52:54.748Z,1.6
2023-01-06T07:57:55.575Z,2.5
2023-01-06T08:02:59.842Z,2.5
2023-01-06T08:08:02.280Z,2
2023-01-06T08:13:04.471Z,1.3
2023-01-06T08:23:07.497Z,1.1
2023-01-06T08:28:09.613Z,1
2023-01-06T08:33:11.678Z,1.3
2023-01-06T08:38:13.893Z,1.2
2023-01-06T08:43:16.142Z,1.3
2023-01-06T08:48:18.197Z,1.1
2023-01-06T08:53:20.329Z,1.2
2023-01-06T08:58:22.647Z,1.2
2023-01-06T09:03:24.883Z,1.2
2023-01-06T09:08:28.567Z,1.1
2023-01-06T09:13:33.688Z,1.2
2023-01-06T09:18:38.479Z,1.3
2023-01-06T09:23:54.918Z,1.1
2023-01-06T09:28:43.633Z,2.4
2023-01-06T09:33:48.651Z,1.4
2023-01-06T09:38:50.867Z,1.1
2023-01-06T09:43:53.306Z,1.1
2023-01-06T09:48:55.346Z,1.1
2023-01-06T09:54:00.273Z,1.2
2023-01-06T09:59:02.457Z,1
2023-01-06T10:04:04.671Z,1.1
2023-01-06T10:09:06.880Z,1.3
2023-01-06T10:14:09.345Z,1.1
2023-01-06T10:19:11.570Z,1.2
2023-01-06T10:29:16.732Z,1.3
2023-01-06T10:39:24.977Z,1.3
2023-01-06T10:44:27.272Z,1.3
2023-01-06T10:49:29.856Z,1.4
2023-01-06T10:54:32.282Z,2.1
2023-01-06T10:59:33.351Z,1.3
2023-01-06T11:04:35.654Z,1.1
2023-01-06T11:09:38.178Z,1
2023-01-06T11:14:42.222Z,1.1
2023-01-06T11:19:44.924Z,1
2023-01-06T11:24:46.930Z,1.2
2023-01-06T11:29:49.015Z,1.3
2023-01-06T11:34:51.169Z,1.3
2023-01-06T11:40:11.378Z,1.7
2023-01-06T11:44:54.235Z,1.6
2023-01-06T11:49:56.263Z,1.1
2023-01-06T11:54:58.493Z,1.4
2023-01-06T12:00:00.723Z,1.9
2023-01-06T12:05:02.830Z,1.1
2023-01-06T12:10:04.992Z,1
2023-01-06T12:15:07.075Z,0.9
2023-01-06T12:20:11.414Z,1.1
2023-01-06T12:25:15.182Z,1
2023-01-06T12:30:17.226Z,1.1
2023-01-06T12:35:20.106Z,1.3
2023-01-06T12:40:22.384Z,1.1
2023-01-06T12:45:24.631Z,1.1
2023-01-06T12:50:26.787Z,1.2
2023-01-06T12:55:28.927Z,0.9
2023-01-06T13:00:30.927Z,0.8
2023-01-06T13:05:33.062Z,1
2023-01-06T13:10:35.382Z,1
2023-01-06T13:15:37.359Z,1
2023-01-06T13:20:39.441Z,0.9
2023-01-06T13:25:41.591Z,2.1
2023-01-06T13:30:54.782Z,1.1
2023-01-06T13:35:47.176Z,1.1
2023-01-06T13:40:49.308Z,1.5
2023-01-06T13:45:51.730Z,1.1
2023-01-06T13:50:54.142Z,1.1
2023-01-06T13:55:56.141Z,2.1
2023-01-06T14:00:58.245Z,1.2
2023-01-06T14:06:00.383Z,1.2
2023-01-06T14:11:02.601Z,1.8
2023-01-06T14:16:04.933Z,3.6
2023-01-06T14:21:07.720Z,2.4
2023-01-06T14:26:09.672Z,10
2023-01-06T14:31:18.712Z,1.5
2023-01-06T14:36:21.625Z,1.6
2023-01-06T14:41:24.245Z,1.8
2023-01-06T14:46:26.724Z,2.5
2023-01-06T14:51:29.455Z,4
2023-01-06T14:56:32.066Z,4.5
2023-01-06T15:01:34.789Z,4.2
2023-01-06T15:06:37.765Z,4.2
2023-01-06T15:11:39.954Z,3.9
2023-01-06T15:16:42.029Z,4
2023-01-06T15:21:44.105Z,4.8
2023-01-06T15:26:46.364Z,5
2023-01-06T15:31:48.674Z,5
2023-01-06T15:36:50.721Z,3.9
2023-01-06T15:41:53.258Z,3.7
2023-01-06T15:46:55.357Z,3.5
2023-01-06T15:51:58.344Z,2.8
2023-01-06T15:57:17.137Z,3
2023-01-06T16:02:09.834Z,2.7
2023-01-06T16:07:12.685Z,5.1
2023-01-06T16:12:15.399Z,5.5
2023-01-06T16:17:17.738Z,6.3
2023-01-06T16:22:20.148Z,6.7
2023-01-06T16:27:22.607Z,6.8
2023-01-06T16:32:24.823Z,6.3
2023-01-06T16:37:26.940Z,7.6
2023-01-06T16:42:28.916Z,7.4
2023-01-06T16:47:30.937Z,7.1
2023-01-06T16:52:35.791Z,6.6
2023-01-06T16:57:38.345Z,6.3
2023-01-06T17:02:40.540Z,6.1
2023-01-06T17:07:42.594Z,6.2
2023-01-06T17:12:44.726Z,7.6
2023-01-06T17:17:46.873Z,10.5
2023-01-06T17:22:47.201Z,7.5
2023-01-06T17:27:49.300Z,7.6
2023-01-06T17:32:51.327Z,6.5
2023-01-06T17:37:53.331Z,5.9
2023-01-06T17:42:55.412Z,5.9
2023-01-06T17:47:57.545Z,5.6
2023-01-06T17:52:59.705Z,6.3
2023-01-06T17:58:01.621Z,6.5
2023-01-06T18:03:03.626Z,8.2
2023-01-06T18:08:05.704Z,9
2023-01-06T18:13:07.814Z,10
2023-01-06T18:18:09.936Z,9.1
2023-01-06T18:23:12.354Z,8.5
2023-01-06T18:28:14.816Z,10.3
2023-01-06T18:33:16.859Z,12.1
2023-01-06T18:38:18.950Z,9.8
2023-01-06T18:43:21.078Z,9.5
2023-01-06T18:48:23.115Z,10.3
2023-01-06T18:53:25.452Z,13.8
2023-01-06T18:58:25.820Z,9.6
2023-01-06T19:03:27.917Z,9.5
2023-01-06T19:08:30.449Z,10.7
2023-01-06T19:13:32.758Z,9.5
2023-01-06T19:18:34.913Z,9
2023-01-06T19:23:36.881Z,9.2
2023-01-06T19:28:39.132Z,8.9
2023-01-06T19:33:42.043Z,8.7
2023-01-06T19:38:44.567Z,8.4
2023-01-06T19:43:47.594Z,8.4
2023-01-06T19:48:49.928Z,9.3
2023-01-06T19:53:52.017Z,9.6
2023-01-06T19:58:54.181Z,10.1
2023-01-06T20:03:56.477Z,8.7
2023-01-06T20:08:59.095Z,9.5
2023-01-06T20:14:01.782Z,9.9
2023-01-06T20:19:04.092Z,10.4
2023-01-06T20:24:06.206Z,11.1
2023-01-06T20:29:08.289Z,9.7
2023-01-06T20:34:10.706Z,9.6
2023-01-06T20:39:13.012Z,9.2
2023-01-06T20:44:15.767Z,8.6
2023-01-06T20:49:18.141Z,7.7
2023-01-06T20:54:20.325Z,7.3
2023-01-06T20:59:24.883Z,7.3
2023-01-06T21:04:27.199Z,7.2
2023-01-06T21:09:34.238Z,6.7
2023-01-06T21:14:36.903Z,6.3
2023-01-06T21:19:39.212Z,6.4
2023-01-06T21:24:41.726Z,6
2023-01-06T21:29:44.228Z,6
2023-01-06T21:34:47.275Z,6.4
2023-01-06T21:39:50.037Z,7.3
2023-01-06T21:44:52.598Z,6.4
2023-01-06T21:49:55.069Z,5.5
2023-01-06T21:54:57.795Z,5.9
2023-01-06T22:00:00.327Z,6.3
2023-01-06T22:05:02.403Z,5.4
2023-01-06T22:10:07.098Z,5.4
2023-01-06T22:15:09.421Z,5.1
2023-01-06T22:20:11.817Z,5.2
2023-01-06T22:25:14.294Z,5.2
2023-01-06T22:30:16.640Z,5.7
2023-01-06T22:35:18.780Z,5.6
2023-01-06T22:40:21.268Z,5.4
2023-01-06T22:45:24.268Z,5.6
2023-01-06T22:50:26.597Z,5.8
2023-01-06T22:55:29.043Z,6.1
2023-01-06T23:00:31.581Z,5.8
2023-01-06T23:05:33.806Z,5.8
2023-01-06T23:10:36.034Z,5.4
2023-01-06T23:15:39.570Z,5.5
2023-01-06T23:20:41.887Z,5.6
2023-01-06T23:25:44.129Z,5.7
2023-01-06T23:30:46.625Z,5.9
2023-01-06T23:35:49.005Z,5.7
2023-01-06T23:40:51.347Z,5.9
2023-01-06T23:45:54.375Z,6.3
2023-01-06T23:50:56.935Z,6.2
2023-01-06T23:55:59.587Z,6.1
